sensor_id;sensor_type;location;lat;lon;timestamp;pressure;altitude;pressure_sealevel;temperature;humidity
18900;BME280;9582;52.018;6.306;2023-02-12T00:01:55;103683.56;;;8.05;100.00
18900;BME280;9582;52.018;6.306;2023-02-12T00:04:25;103681.00;;;8.08;100.00
18900;BME280;9582;52.018;6.306;2023-02-12T00:06:53;103674.91;;;8.06;100.00
18900;BME280;9582;52.018;6.306;2023-02-12T00:09:22;103684.34;;;7.95;100.00
18900;BME280;9582;52.018;6.306;2023-02-12T00:11:50;103674.75;;;7.94;100.00
18900;BME280;9582;52.018;6.306;2023-02-12T00:14:18;103673.91;;;7.97;100.00
18900;BME280;9582;52.018;6.306;2023-02-12T00:16:47;103679.84;;;7.84;100.00
18900;BME280;9582;52.018;6.306;2023-02-12T00:19:20;103680.56;;;7.74;100.00
18900;BME280;9582;52.018;6.306;2023-02-12T00:21:47;103681.53;;;7.82;100.00
18900;BME280;9582;52.018;6.306;2023-02-12T00:24:18;103682.47;;;7.85;100.00
18900;BME280;9582;52.018;6.306;2023-02-12T00:26:46;103684.13;;;7.80;100.00
18900;BME280;9582;52.018;6.306;2023-02-12T00:29:20;103675.38;;;7.74;100.00
18900;BME280;9582;52.018;6.306;2023-02-12T00:31:58;103679.69;;;7.70;100.00
18900;BME280;9582;52.018;6.306;2023-02-12T00:34:25;103674.34;;;7.63;100.00
18900;BME280;9582;52.018;6.306;2023-02-12T00:36:53;103688.22;;;7.59;100.00
18900;BME280;9582;52.018;6.306;2023-02-12T00:39:20;103678.69;;;7.61;100.00
18900;BME280;9582;52.018;6.306;2023-02-12T00:41:52;103685.59;;;7.59;100.00
18900;BME280;9582;52.018;6.306;2023-02-12T00:44:33;103680.31;;;7.54;100.00
18900;BME280;9582;52.018;6.306;2023-02-12T00:47:02;103679.44;;;7.50;100.00
18900;BME280;9582;52.018;6.306;2023-02-12T00:49:31;103682.53;;;7.27;100.00
18900;BME280;9582;52.018;6.306;2023-02-12T00:52:06;103688.59;;;7.24;100.00
18900;BME280;9582;52.018;6.306;2023-02-12T00:54:37;103688.50;;;7.20;100.00
18900;BME280;9582;52.018;6.306;2023-02-12T00:57:07;103686.13;;;7.35;100.00
18900;BME280;9582;52.018;6.306;2023-02-12T00:59:42;103693.63;;;7.14;100.00
18900;BME280;9582;52.018;6.306;2023-02-12T01:02:19;103691.09;;;7.17;100.00
18900;BME280;9582;52.018;6.306;2023-02-12T01:04:48;103695.50;;;7.22;100.00
18900;BME280;9582;52.018;6.306;2023-02-12T01:07:17;103691.94;;;7.16;100.00
18900;BME280;9582;52.018;6.306;2023-02-12T01:09:48;103692.22;;;7.37;100.00
18900;BME280;9582;52.018;6.306;2023-02-12T01:12:17;103703.59;;;7.42;100.00
18900;BME280;9582;52.018;6.306;2023-02-12T01:14:45;103701.00;;;7.42;100.00
18900;BME280;9582;52.018;6.306;2023-02-12T01:17:14;103694.91;;;7.41;100.00
18900;BME280;9582;52.018;6.306;2023-02-12T01:19:52;103698.22;;;7.30;100.00
18900;BME280;9582;52.018;6.306;2023-02-12T01:22:24;103700.91;;;7.36;100.00
18900;BME280;9582;52.018;6.306;2023-02-12T01:24:51;103697.47;;;7.40;100.00
18900;BME280;9582;52.018;6.306;2023-02-12T01:27:35;103706.16;;;7.40;100.00
18900;BME280;9582;52.018;6.306;2023-02-12T01:30:07;103703.59;;;7.43;100.00
18900;BME280;9582;52.018;6.306;2023-02-12T01:32:40;103706.13;;;7.36;100.00
18900;BME280;9582;52.018;6.306;2023-02-12T01:35:09;103703.66;;;7.46;100.00
18900;BME280;9582;52.018;6.306;2023-02-12T01:37:44;103701.00;;;7.42;100.00
18900;BME280;9582;52.018;6.306;2023-02-12T01:40:14;103694.81;;;7.37;100.00
18900;BME280;9582;52.018;6.306;2023-02-12T01:42:47;103691.44;;;7.41;100.00
18900;BME280;9582;52.018;6.306;2023-02-12T01:48:29;103700.91;;;7.36;100.00
18900;BME280;9582;52.018;6.306;2023-02-12T01:50:59;103690.41;;;7.31;100.00
18900;BME280;9582;52.018;6.306;2023-02-12T01:53:32;103692.22;;;7.35;100.00
18900;BME280;9582;52.018;6.306;2023-02-12T01:56:01;103692.22;;;7.37;100.00
18900;BME280;9582;52.018;6.306;2023-02-12T01:58:34;103696.59;;;7.38;100.00
18900;BME280;9582;52.018;6.306;2023-02-12T02:01:09;103694.88;;;7.40;100.00
18900;BME280;9582;52.018;6.306;2023-02-12T02:03:43;103680.13;;;7.40;100.00
18900;BME280;9582;52.018;6.306;2023-02-12T02:06:18;103680.97;;;7.38;100.00
18900;BME280;9582;52.018;6.306;2023-02-12T02:08:48;103682.69;;;7.37;100.00
18900;BME280;9582;52.018;6.306;2023-02-12T02:11:17;103673.25;;;7.45;100.00
18900;BME280;9582;52.018;6.306;2023-02-12T02:14:02;103683.66;;;7.44;100.00
18900;BME280;9582;52.018;6.306;2023-02-12T02:16:56;103687.94;;;7.40;100.00
18900;BME280;9582;52.018;6.306;2023-02-12T02:19:34;103687.94;;;7.40;100.00
18900;BME280;9582;52.018;6.306;2023-02-12T02:22:18;103681.84;;;7.38;100.00
18900;BME280;9582;52.018;6.306;2023-02-12T02:28:05;103678.31;;;7.33;100.00
18900;BME280;9582;52.018;6.306;2023-02-12T02:30:42;103677.44;;;7.34;100.00
18900;BME280;9582;52.018;6.306;2023-02-12T02:33:23;103675.50;;;7.20;100.00
18900;BME280;9582;52.018;6.306;2023-02-12T02:35:54;103681.63;;;7.23;100.00
18900;BME280;9582;52.018;6.306;2023-02-12T02:38:32;103673.81;;;7.22;100.00
18900;BME280;9582;52.018;6.306;2023-02-12T02:41:07;103676.41;;;7.23;100.00
18900;BME280;9582;52.018;6.306;2023-02-12T02:43:48;103666.00;;;7.22;100.00
18900;BME280;9582;52.018;6.306;2023-02-12T02:46:25;103664.19;;;7.16;100.00
18900;BME280;9582;52.018;6.306;2023-02-12T02:49:04;103671.69;;;6.96;100.00
18900;BME280;9582;52.018;6.306;2023-02-12T02:51:39;103666.53;;;7.01;100.00
18900;BME280;9582;52.018;6.306;2023-02-12T02:54:18;103664.72;;;6.94;100.00
18900;BME280;9582;52.018;6.306;2023-02-12T02:56:48;103667.22;;;6.88;100.00
18900;BME280;9582;52.018;6.306;2023-02-12T02:59:18;103664.47;;;6.79;100.00
18900;BME280;9582;52.018;6.306;2023-02-12T03:02:03;103667.00;;;6.76;100.00
18900;BME280;9582;52.018;6.306;2023-02-12T03:04:38;103664.41;;;6.74;100.00
18900;BME280;9582;52.018;6.306;2023-02-12T03:07:15;103664.53;;;6.83;100.00
18900;BME280;9582;52.018;6.306;2023-02-12T03:09:56;103668.84;;;6.81;100.00
18900;BME280;9582;52.018;6.306;2023-02-12T03:12:35;103677.25;;;6.67;100.00
18900;BME280;9582;52.018;6.306;2023-02-12T03:15:06;103672.72;;;6.55;100.00
18900;BME280;9582;52.018;6.306;2023-02-12T03:17:48;103672.47;;;6.40;100.00
18900;BME280;9582;52.018;6.306;2023-02-12T03:20:19;103664.56;;;6.35;100.00
18900;BME280;9582;52.018;6.306;2023-02-12T03:23:09;103665.63;;;6.45;100.00
18900;BME280;9582;52.018;6.306;2023-02-12T03:25:47;103663.47;;;6.23;100.00
18900;BME280;9582;52.018;6.306;2023-02-12T03:28:22;103663.53;;;6.26;100.00
18900;BME280;9582;52.018;6.306;2023-02-12T03:31:07;103665.34;;;6.30;100.00
18900;BME280;9582;52.018;6.306;2023-02-12T03:33:45;103665.44;;;6.34;100.00
18900;BME280;9582;52.018;6.306;2023-02-12T03:36:28;103663.63;;;6.30;100.00
18900;BME280;9582;52.018;6.306;2023-02-12T03:39:07;103671.22;;;6.20;100.00
18900;BME280;9582;52.018;6.306;2023-02-12T03:41:44;103675.41;;;6.12;100.00
18900;BME280;9582;52.018;6.306;2023-02-12T03:44:22;103669.50;;;6.20;100.00
18900;BME280;9582;52.018;6.306;2023-02-12T03:46:58;103674.44;;;6.07;100.00
18900;BME280;9582;52.018;6.306;2023-02-12T03:49:34;103678.94;;;6.17;100.00
18900;BME280;9582;52.018;6.306;2023-02-12T03:52:09;103683.38;;;6.21;100.00
18900;BME280;9582;52.018;6.306;2023-02-12T03:54:36;103682.25;;;6.08;100.00
18900;BME280;9582;52.018;6.306;2023-02-12T03:57:06;103683.84;;;6.02;100.00
18900;BME280;9582;52.018;6.306;2023-02-12T03:59:47;103680.28;;;5.97;100.00
18900;BME280;9582;52.018;6.306;2023-02-12T04:02:17;103675.47;;;6.15;100.00
18900;BME280;9582;52.018;6.306;2023-02-12T04:04:48;103677.69;;;5.95;100.00
18900;BME280;9582;52.018;6.306;2023-02-12T04:07:33;103688.84;;;5.91;100.00
18900;BME280;9582;52.018;6.306;2023-02-12T04:10:00;103684.53;;;5.93;100.00
18900;BME280;9582;52.018;6.306;2023-02-12T04:12:34;103683.69;;;5.94;100.00
18900;BME280;9582;52.018;6.306;2023-02-12T04:15:41;103683.78;;;5.99;100.00
18900;BME280;9582;52.018;6.306;2023-02-12T04:18:24;103683.06;;;6.06;100.00
18900;BME280;9582;52.018;6.306;2023-02-12T04:21:06;103690.94;;;6.10;100.00
18900;BME280;9582;52.018;6.306;2023-02-12T04:23:51;103687.47;;;6.10;100.00
18900;BME280;9582;52.018;6.306;2023-02-12T04:26:33;103692.63;;;6.07;100.00
18900;BME280;9582;52.018;6.306;2023-02-12T04:29:09;103698.38;;;5.92;100.00
18900;BME280;9582;52.018;6.306;2023-02-12T04:31:43;103700.91;;;5.89;100.00
18900;BME280;9582;52.018;6.306;2023-02-12T04:34:17;103694.88;;;5.90;100.00
18900;BME280;9582;52.018;6.306;2023-02-12T04:36:58;103707.97;;;5.96;100.00
18900;BME280;9582;52.018;6.306;2023-02-12T04:39:30;103706.31;;;6.00;100.00
18900;BME280;9582;52.018;6.306;2023-02-12T04:42:03;103707.97;;;5.95;100.00
18900;BME280;9582;52.018;6.306;2023-02-12T04:44:37;103716.03;;;6.10;100.00
18900;BME280;9582;52.018;6.306;2023-02-12T04:47:06;103716.97;;;6.12;100.00
18900;BME280;9582;52.018;6.306;2023-02-12T04:49:32;103718.75;;;6.14;100.00
18900;BME280;9582;52.018;6.306;2023-02-12T04:52:00;103717.81;;;6.11;100.00
18900;BME280;9582;52.018;6.306;2023-02-12T04:54:28;103726.59;;;6.17;100.00
18900;BME280;9582;52.018;6.306;2023-02-12T04:56:57;103728.41;;;6.21;100.00
18900;BME280;9582;52.018;6.306;2023-02-12T04:59:25;103727.63;;;6.27;100.00
18900;BME280;9582;52.018;6.306;2023-02-12T05:01:57;103725.09;;;6.30;100.00
18900;BME280;9582;52.018;6.306;2023-02-12T05:04:25;103724.22;;;6.28;100.00
18900;BME280;9582;52.018;6.306;2023-02-12T05:06:55;103730.28;;;6.28;100.00
18900;BME280;9582;52.018;6.306;2023-02-12T05:09:31;103721.59;;;6.26;100.00
18900;BME280;9582;52.018;6.306;2023-02-12T05:11:59;103731.03;;;6.23;100.00
18900;BME280;9582;52.018;6.306;2023-02-12T05:14:32;103724.88;;;6.18;100.00
18900;BME280;9582;52.018;6.306;2023-02-12T05:17:00;103723.13;;;6.17;100.00
18900;BME280;9582;52.018;6.306;2023-02-12T05:19:28;103721.41;;;6.17;100.00
18900;BME280;9582;52.018;6.306;2023-02-12T05:21:57;103727.50;;;6.19;100.00
18900;BME280;9582;52.018;6.306;2023-02-12T05:24:30;103726.69;;;6.22;100.00
18900;BME280;9582;52.018;6.306;2023-02-12T05:26:59;103731.19;;;6.30;100.00
18900;BME280;9582;52.018;6.306;2023-02-12T05:29:27;103724.34;;;6.34;100.00
18900;BME280;9582;52.018;6.306;2023-02-12T05:31:57;103725.28;;;6.37;100.00
18900;BME280;9582;52.018;6.306;2023-02-12T05:34:23;103724.22;;;6.28;100.00
18900;BME280;9582;52.018;6.306;2023-02-12T05:36:51;103725.72;;;6.17;100.00
18900;BME280;9582;52.018;6.306;2023-02-12T05:39:28;103728.50;;;6.26;100.00
18900;BME280;9582;52.018;6.306;2023-02-12T05:42:02;103725.91;;;6.26;100.00
18900;BME280;9582;52.018;6.306;2023-02-12T05:44:32;103721.66;;;6.31;100.00
18900;BME280;9582;52.018;6.306;2023-02-12T05:47:04;103721.56;;;6.25;100.00
18900;BME280;9582;52.018;6.306;2023-02-12T05:49:32;103730.88;;;6.15;100.00
18900;BME280;9582;52.018;6.306;2023-02-12T05:52:00;103724.91;;;6.19;100.00
18900;BME280;9582;52.018;6.306;2023-02-12T05:54:31;103723.13;;;6.17;100.00
18900;BME280;9582;52.018;6.306;2023-02-12T05:57:05;103729.34;;;6.25;100.00
18900;BME280;9582;52.018;6.306;2023-02-12T05:59:34;103730.34;;;6.31;100.00
18900;BME280;9582;52.018;6.306;2023-02-12T06:02:07;103731.94;;;6.23;100.00
18900;BME280;9582;52.018;6.306;2023-02-12T06:04:33;103725.88;;;6.24;100.00
18900;BME280;9582;52.018;6.306;2023-02-12T06:07:02;103734.66;;;6.31;100.00
18900;BME280;9582;52.018;6.306;2023-02-12T06:09:32;103736.44;;;6.32;100.00
18900;BME280;9582;52.018;6.306;2023-02-12T06:12:06;103736.50;;;6.35;100.00
18900;BME280;9582;52.018;6.306;2023-02-12T06:14:32;103738.22;;;6.36;100.00
18900;BME280;9582;52.018;6.306;2023-02-12T06:17:02;103737.13;;;6.23;100.00
18900;BME280;9582;52.018;6.306;2023-02-12T06:19:32;103740.75;;;6.31;100.00
18900;BME280;9582;52.018;6.306;2023-02-12T06:21:59;103735.41;;;6.25;100.00
18900;BME280;9582;52.018;6.306;2023-02-12T06:24:28;103741.50;;;6.27;100.00
18900;BME280;9582;52.018;6.306;2023-02-12T06:26:58;103742.53;;;6.34;100.00
18900;BME280;9582;52.018;6.306;2023-02-12T06:29:38;103746.00;;;6.34;100.00
18900;BME280;9582;52.018;6.306;2023-02-12T06:32:09;103741.50;;;6.27;100.00
18900;BME280;9582;52.018;6.306;2023-02-12T06:34:40;103738.09;;;6.30;100.00
18900;BME280;9582;52.018;6.306;2023-02-12T06:37:12;103746.75;;;6.29;100.00
18900;BME280;9582;52.018;6.306;2023-02-12T06:39:43;103749.31;;;6.27;100.00
18900;BME280;9582;52.018;6.306;2023-02-12T06:42:16;103747.63;;;6.29;100.00
18900;BME280;9582;52.018;6.306;2023-02-12T06:44:47;103755.47;;;6.32;100.00
18900;BME280;9582;52.018;6.306;2023-02-12T06:47:19;103751.22;;;6.36;100.00
18900;BME280;9582;52.018;6.306;2023-02-12T06:49:55;103746.97;;;6.41;100.00
18900;BME280;9582;52.018;6.306;2023-02-12T06:52:21;103754.00;;;6.45;100.00
18900;BME280;9582;52.018;6.306;2023-02-12T06:54:48;103754.94;;;6.50;100.00
18900;BME280;9582;52.018;6.306;2023-02-12T06:57:20;103756.59;;;6.45;100.00
18900;BME280;9582;52.018;6.306;2023-02-12T06:59:49;103755.75;;;6.46;100.00
18900;BME280;9582;52.018;6.306;2023-02-12T07:02:16;103763.44;;;6.42;100.00
18900;BME280;9582;52.018;6.306;2023-02-12T07:04:42;103762.19;;;6.66;100.00
18900;BME280;9582;52.018;6.306;2023-02-12T07:07:10;103760.63;;;6.76;100.00
18900;BME280;9582;52.018;6.306;2023-02-12T07:09:38;103766.53;;;6.67;100.00
18900;BME280;9582;52.018;6.306;2023-02-12T07:12:09;103766.72;;;6.76;100.00
18900;BME280;9582;52.018;6.306;2023-02-12T07:14:44;103773.44;;;6.65;100.00
18900;BME280;9582;52.018;6.306;2023-02-12T07:17:18;103768.44;;;6.77;100.00
18900;BME280;9582;52.018;6.306;2023-02-12T07:19:45;103772.63;;;6.69;100.00
18900;BME280;9582;52.018;6.306;2023-02-12T07:22:14;103769.28;;;6.75;100.00
18900;BME280;9582;52.018;6.306;2023-02-12T07:24:48;103766.06;;;6.89;100.00
18900;BME280;9582;52.018;6.306;2023-02-12T07:27:16;103778.13;;;6.86;100.00
18900;BME280;9582;52.018;6.306;2023-02-12T07:29:44;103781.63;;;6.85;100.00
18900;BME280;9582;52.018;6.306;2023-02-12T07:32:18;103781.75;;;6.92;100.00
18900;BME280;9582;52.018;6.306;2023-02-12T07:34:49;103780.06;;;6.96;100.00
18900;BME280;9582;52.018;6.306;2023-02-12T07:37:19;103781.84;;;6.98;100.00
18900;BME280;9582;52.018;6.306;2023-02-12T07:39:49;103781.91;;;7.03;100.00
18900;BME280;9582;52.018;6.306;2023-02-12T07:42:22;103792.31;;;7.02;100.00
18900;BME280;9582;52.018;6.306;2023-02-12T07:45:06;103787.16;;;7.06;100.00
18900;BME280;9582;52.018;6.306;2023-02-12T07:47:36;103795.13;;;7.14;100.00
18900;BME280;9582;52.018;6.306;2023-02-12T07:50:08;103789.97;;;7.17;100.00
18900;BME280;9582;52.018;6.306;2023-02-12T07:52:38;103795.31;;;7.24;100.00
18900;BME280;9582;52.018;6.306;2023-02-12T07:55:14;103796.97;;;7.21;100.00
18900;BME280;9582;52.018;6.306;2023-02-12T07:57:45;103797.03;;;7.24;100.00
18900;BME280;9582;52.018;6.306;2023-02-12T08:00:15;103797.06;;;7.25;100.00
18900;BME280;9582;52.018;6.306;2023-02-12T08:02:50;103802.28;;;7.25;100.00
18900;BME280;9582;52.018;6.306;2023-02-12T08:05:27;103805.81;;;7.32;100.00
18900;BME280;9582;52.018;6.306;2023-02-12T08:07:56;103811.06;;;7.33;100.00
18900;BME280;9582;52.018;6.306;2023-02-12T08:10:25;103812.91;;;7.39;100.00
18900;BME280;9582;52.018;6.306;2023-02-12T08:12:59;103815.50;;;7.40;100.00
18900;BME280;9582;52.018;6.306;2023-02-12T08:15:29;103817.34;;;7.46;100.00
18900;BME280;9582;52.018;6.306;2023-02-12T08:17:58;103821.66;;;7.45;100.00
18900;BME280;9582;52.018;6.306;2023-02-12T08:20:25;103825.16;;;7.46;100.00
18900;BME280;9582;52.018;6.306;2023-02-12T08:22:52;103827.06;;;7.56;100.00
18900;BME280;9582;52.018;6.306;2023-02-12T08:25:18;103824.56;;;7.64;100.00
18900;BME280;9582;52.018;6.306;2023-02-12T08:27:48;103824.75;;;7.77;100.00
18900;BME280;9582;52.018;6.306;2023-02-12T08:30:19;103829.19;;;7.81;100.00
18900;BME280;9582;52.018;6.306;2023-02-12T08:32:49;103824.88;;;7.83;100.00
18900;BME280;9582;52.018;6.306;2023-02-12T08:35:24;103840.72;;;7.98;100.00
18900;BME280;9582;52.018;6.306;2023-02-12T08:37:51;103831.28;;;8.06;100.00
18900;BME280;9582;52.018;6.306;2023-02-12T08:40:20;103834.81;;;8.11;100.00
18900;BME280;9582;52.018;6.306;2023-02-12T08:42:53;103840.88;;;8.09;100.00
18900;BME280;9582;52.018;6.306;2023-02-12T08:45:21;103841.78;;;8.12;100.00
18900;BME280;9582;52.018;6.306;2023-02-12T08:47:56;103837.50;;;8.18;100.00
18900;BME280;9582;52.018;6.306;2023-02-12T08:50:28;103841.03;;;8.23;100.00
18900;BME280;9582;52.018;6.306;2023-02-12T08:53:01;103847.16;;;8.25;100.00
18900;BME280;9582;52.018;6.306;2023-02-12T08:55:30;103849.03;;;8.32;100.00
18900;BME280;9582;52.018;6.306;2023-02-12T08:58:00;103853.53;;;8.43;100.00
18900;BME280;9582;52.018;6.306;2023-02-12T09:00:28;103853.56;;;8.46;100.00
18900;BME280;9582;52.018;6.306;2023-02-12T09:03:03;103858.75;;;8.43;100.00
18900;BME280;9582;52.018;6.306;2023-02-12T09:05:31;103855.38;;;8.52;100.00
18900;BME280;9582;52.018;6.306;2023-02-12T09:08:02;103858.81;;;8.51;100.00
18900;BME280;9582;52.018;6.306;2023-02-12T09:10:29;103857.09;;;8.53;100.00
18900;BME280;9582;52.018;6.306;2023-02-12T09:12:55;103860.66;;;8.59;100.00
18900;BME280;9582;52.018;6.306;2023-02-12T09:15:29;103861.63;;;8.67;100.00
18900;BME280;9582;52.018;6.306;2023-02-12T09:17:58;103856.38;;;8.63;100.00
18900;BME280;9582;52.018;6.306;2023-02-12T09:20:28;103861.63;;;8.67;100.00
18900;BME280;9582;52.018;6.306;2023-02-12T09:22:57;103857.38;;;8.74;100.00
18900;BME280;9582;52.018;6.306;2023-02-12T09:25:27;103854.78;;;8.77;100.00
18900;BME280;9582;52.018;6.306;2023-02-12T09:27:54;103854.81;;;8.80;100.00
18900;BME280;9582;52.018;6.306;2023-02-12T09:30:38;103860.13;;;8.86;100.00
18900;BME280;9582;52.018;6.306;2023-02-12T09:33:15;103860.09;;;8.85;100.00
18900;BME280;9582;52.018;6.306;2023-02-12T09:35:44;103863.56;;;8.85;100.00
18900;BME280;9582;52.018;6.306;2023-02-12T09:38:13;103864.41;;;8.84;100.00
18900;BME280;9582;52.018;6.306;2023-02-12T09:41:01;103864.41;;;8.84;100.00
18900;BME280;9582;52.018;6.306;2023-02-12T09:43:37;103860.13;;;8.88;100.00
18900;BME280;9582;52.018;6.306;2023-02-12T09:46:14;103857.50;;;8.86;100.00
18900;BME280;9582;52.018;6.306;2023-02-12T09:48:53;103852.31;;;8.92;100.00
18900;BME280;9582;52.018;6.306;2023-02-12T09:51:26;103857.50;;;8.86;100.00
18900;BME280;9582;52.018;6.306;2023-02-12T09:54:05;103861.00;;;8.90;100.00
18900;BME280;9582;52.018;6.306;2023-02-12T09:56:39;103862.78;;;8.94;100.00
18900;BME280;9582;52.018;6.306;2023-02-12T09:59:23;103861.94;;;8.96;100.00
18900;BME280;9582;52.018;6.306;2023-02-12T10:01:51;103862.84;;;8.98;100.00
18900;BME280;9582;52.018;6.306;2023-02-12T10:04:27;103856.75;;;8.99;100.00
18900;BME280;9582;52.018;6.306;2023-02-12T10:07:00;103863.72;;;8.99;100.00
18900;BME280;9582;52.018;6.306;2023-02-12T10:09:51;103862.06;;;9.05;100.00
18900;BME280;9582;52.018;6.306;2023-02-12T10:12:31;103869.88;;;9.05;100.00
18900;BME280;9582;52.018;6.306;2023-02-12T10:15:14;103862.09;;;9.08;100.00
18900;BME280;9582;52.018;6.306;2023-02-12T10:17:51;103868.22;;;9.15;100.00
18900;BME280;9582;52.018;6.306;2023-02-12T10:20:39;103863.91;;;9.17;100.00
18900;BME280;9582;52.018;6.306;2023-02-12T10:23:38;103865.63;;;9.16;100.00
18900;BME280;9582;52.018;6.306;2023-02-12T10:26:18;103864.75;;;9.16;100.00
18900;BME280;9582;52.018;6.306;2023-02-12T10:28:55;103857.81;;;9.18;100.00
18900;BME280;9582;52.018;6.306;2023-02-12T10:31:30;103861.34;;;9.20;100.00
18900;BME280;9582;52.018;6.306;2023-02-12T10:33:57;103854.34;;;9.19;100.00
18900;BME280;9582;52.018;6.306;2023-02-12T10:36:36;103854.41;;;9.25;100.00
18900;BME280;9582;52.018;6.306;2023-02-12T10:39:14;103862.31;;;9.31;100.00
18900;BME280;9582;52.018;6.306;2023-02-12T10:41:50;103863.19;;;9.35;100.00
18900;BME280;9582;52.018;6.306;2023-02-12T10:44:27;103860.59;;;9.38;100.00
18900;BME280;9582;52.018;6.306;2023-02-12T10:46:54;103852.81;;;9.44;100.00
18900;BME280;9582;52.018;6.306;2023-02-12T10:49:30;103851.09;;;9.46;100.00
18900;BME280;9582;52.018;6.306;2023-02-12T10:52:14;103860.72;;;9.50;100.00
18900;BME280;9582;52.018;6.306;2023-02-12T10:54:47;103861.59;;;9.52;100.00
18900;BME280;9582;52.018;6.306;2023-02-12T10:57:23;103858.97;;;9.52;100.00
18900;BME280;9582;52.018;6.306;2023-02-12T10:59:55;103854.69;;;9.63;100.00
18900;BME280;9582;52.018;6.306;2023-02-12T11:02:30;103850.41;;;9.68;100.00
18900;BME280;9582;52.018;6.306;2023-02-12T11:05:19;103850.41;;;9.71;100.00
18900;BME280;9582;52.018;6.306;2023-02-12T11:07:53;103853.94;;;9.77;100.00
18900;BME280;9582;52.018;6.306;2023-02-12T11:10:41;103848.75;;;9.85;100.00
18900;BME280;9582;52.018;6.306;2023-02-12T11:13:21;103843.56;;;9.91;100.00
18900;BME280;9582;52.018;6.306;2023-02-12T11:15:51;103835.75;;;9.93;100.00
18900;BME280;9582;52.018;6.306;2023-02-12T11:18:26;103835.84;;;10.05;100.00
18900;BME280;9582;52.018;6.306;2023-02-12T11:20:58;103831.47;;;10.08;100.00
18900;BME280;9582;52.018;6.306;2023-02-12T11:23:31;103835.03;;;10.19;100.00
18900;BME280;9582;52.018;6.306;2023-02-12T11:26:23;103835.94;;;10.21;100.00
18900;BME280;9582;52.018;6.306;2023-02-12T11:28:57;103827.28;;;10.30;100.00
18900;BME280;9582;52.018;6.306;2023-02-12T11:31:27;103821.16;;;10.29;100.00
18900;BME280;9582;52.018;6.306;2023-02-12T11:34:14;103829.94;;;10.43;100.00
18900;BME280;9582;52.018;6.306;2023-02-12T11:36:45;103828.25;;;10.58;100.00
18900;BME280;9582;52.018;6.306;2023-02-12T11:39:26;103829.09;;;10.54;100.00
18900;BME280;9582;52.018;6.306;2023-02-12T11:41:58;103825.63;;;10.61;100.00
18900;BME280;9582;52.018;6.306;2023-02-12T11:44:33;103815.13;;;10.56;100.00
18900;BME280;9582;52.018;6.306;2023-02-12T11:47:03;103816.84;;;10.48;100.00
18900;BME280;9582;52.018;6.306;2023-02-12T11:49:37;103822.91;;;10.36;100.00
18900;BME280;9582;52.018;6.306;2023-02-12T11:52:21;103818.59;;;10.46;100.00
18900;BME280;9582;52.018;6.306;2023-02-12T11:54:59;103822.91;;;10.36;100.00
18900;BME280;9582;52.018;6.306;2023-02-12T11:57:37;103812.47;;;10.39;100.00
18900;BME280;9582;52.018;6.306;2023-02-12T12:00:15;103804.66;;;10.53;100.00
18900;BME280;9582;52.018;6.306;2023-02-12T12:02:55;103809.94;;;10.62;100.00
18900;BME280;9582;52.018;6.306;2023-02-12T12:05:33;103810.78;;;10.60;100.00
18900;BME280;9582;52.018;6.306;2023-02-12T12:08:04;103804.72;;;10.68;100.00
18900;BME280;9582;52.018;6.306;2023-02-12T12:10:37;103805.59;;;10.69;100.00
18900;BME280;9582;52.018;6.306;2023-02-12T12:13:12;103809.06;;;10.68;100.00
18900;BME280;9582;52.018;6.306;2023-02-12T12:15:42;103801.22;;;10.68;100.00
18900;BME280;9582;52.018;6.306;2023-02-12T12:18:33;103802.97;;;10.70;100.00
18900;BME280;9582;52.018;6.306;2023-02-12T12:21:25;103801.22;;;10.74;100.00
18900;BME280;9582;52.018;6.306;2023-02-12T12:23:59;103802.09;;;10.73;100.00
18900;BME280;9582;52.018;6.306;2023-02-12T12:26:37;103789.88;;;10.73;100.00
18900;BME280;9582;52.018;6.306;2023-02-12T12:29:17;103776.78;;;10.66;100.00
18900;BME280;9582;52.018;6.306;2023-02-12T12:31:49;103779.38;;;10.57;100.00
18900;BME280;9582;52.018;6.306;2023-02-12T12:34:26;103779.41;;;10.67;100.00
18900;BME280;9582;52.018;6.306;2023-02-12T12:37:10;103774.16;;;10.66;100.00
18900;BME280;9582;52.018;6.306;2023-02-12T12:39:57;103782.03;;;10.63;100.00
18900;BME280;9582;52.018;6.306;2023-02-12T12:42:52;103770.69;;;10.61;100.00
18900;BME280;9582;52.018;6.306;2023-02-12T12:45:33;103769.75;;;10.43;100.00
18900;BME280;9582;52.018;6.306;2023-02-12T12:48:16;103762.81;;;10.56;100.00
18900;BME280;9582;52.018;6.306;2023-02-12T12:51:13;103768.94;;;10.63;100.00
18900;BME280;9582;52.018;6.306;2023-02-12T12:53:59;103766.34;;;10.72;100.00
18900;BME280;9582;52.018;6.306;2023-02-12T12:56:46;103765.47;;;10.79;100.00
18900;BME280;9582;52.018;6.306;2023-02-12T12:59:59;103763.72;;;10.84;100.00
18900;BME280;9582;52.018;6.306;2023-02-12T13:08:32;103748.91;;;10.72;100.00
18900;BME280;9582;52.018;6.306;2023-02-12T13:11:22;103744.50;;;10.70;100.00
18900;BME280;9582;52.018;6.306;2023-02-12T13:14:00;103740.16;;;10.75;100.00
18900;BME280;9582;52.018;6.306;2023-02-12T13:16:34;103741.91;;;10.74;100.00
18900;BME280;9582;52.018;6.306;2023-02-12T13:19:08;103741.03;;;10.83;100.00
18900;BME280;9582;52.018;6.306;2023-02-12T13:21:43;103741.91;;;10.85;100.00
18900;BME280;9582;52.018;6.306;2023-02-12T13:24:25;103742.78;;;10.84;100.00
18900;BME280;9582;52.018;6.306;2023-02-12T13:27:07;103735.81;;;10.83;100.00
18900;BME280;9582;52.018;6.306;2023-02-12T13:29:44;103735.81;;;10.80;100.00
18900;BME280;9582;52.018;6.306;2023-02-12T13:32:21;103731.44;;;10.77;100.00
18900;BME280;9582;52.018;6.306;2023-02-12T13:34:52;103740.16;;;10.76;100.00
18900;BME280;9582;52.018;6.306;2023-02-12T13:37:37;103736.66;;;10.71;100.00
18900;BME280;9582;52.018;6.306;2023-02-12T13:40:14;103741.00;;;10.53;100.00
18900;BME280;9582;52.018;6.306;2023-02-12T13:42:52;103740.09;;;10.43;100.00
18900;BME280;9582;52.018;6.306;2023-02-12T13:45:35;103732.25;;;10.40;100.00
18900;BME280;9582;52.018;6.306;2023-02-12T13:48:23;103734.00;;;10.39;100.00